sensor_id;sensor_type;location;lat;lon;timestamp;temperature;humidity
45409;DHT22;31162;51.076;3.784;2022-11-20T00:00:24;5.20;99.90
45409;DHT22;31162;51.076;3.784;2022-11-20T00:02:50;5.40;99.90
45409;DHT22;31162;51.076;3.784;2022-11-20T00:05:16;5.30;99.90
45409;DHT22;31162;51.076;3.784;2022-11-20T00:07:42;5.30;99.90
45409;DHT22;31162;51.076;3.784;2022-11-20T00:10:08;5.30;99.90
45409;DHT22;31162;51.076;3.784;2022-11-20T00:12:33;5.30;99.90
45409;DHT22;31162;51.076;3.784;2022-11-20T00:14:59;5.30;99.90
45409;DHT22;31162;51.076;3.784;2022-11-20T00:17:25;5.30;99.90
45409;DHT22;31162;51.076;3.784;2022-11-20T00:19:50;5.30;99.90
45409;DHT22;31162;51.076;3.784;2022-11-20T00:22:16;5.40;99.90
45409;DHT22;31162;51.076;3.784;2022-11-20T00:24:41;5.40;99.90
45409;DHT22;31162;51.076;3.784;2022-11-20T00:27:07;5.50;99.90
45409;DHT22;31162;51.076;3.784;2022-11-20T00:29:33;5.40;99.90
45409;DHT22;31162;51.076;3.784;2022-11-20T00:31:58;5.40;99.90
45409;DHT22;31162;51.076;3.784;2022-11-20T00:34:24;5.40;99.90
45409;DHT22;31162;51.076;3.784;2022-11-20T00:36:50;5.40;99.90
45409;DHT22;31162;51.076;3.784;2022-11-20T00:39:15;5.30;99.90
45409;DHT22;31162;51.076;3.784;2022-11-20T00:41:41;5.30;99.90
45409;DHT22;31162;51.076;3.784;2022-11-20T00:44:06;5.20;99.90
45409;DHT22;31162;51.076;3.784;2022-11-20T00:46:32;5.10;99.90
45409;DHT22;31162;51.076;3.784;2022-11-20T00:48:58;5.20;99.90
45409;DHT22;31162;51.076;3.784;2022-11-20T00:51:25;5.30;99.90
45409;DHT22;31162;51.076;3.784;2022-11-20T00:53:51;5.40;99.90
45409;DHT22;31162;51.076;3.784;2022-11-20T00:56:19;5.20;99.90
45409;DHT22;31162;51.076;3.784;2022-11-20T00:58:47;5.30;99.90
45409;DHT22;31162;51.076;3.784;2022-11-20T01:01:19;5.20;99.90
45409;DHT22;31162;51.076;3.784;2022-11-20T01:03:48;5.20;99.90
45409;DHT22;31162;51.076;3.784;2022-11-20T01:06:18;5.10;99.90
45409;DHT22;31162;51.076;3.784;2022-11-20T01:08:44;5.10;99.90
45409;DHT22;31162;51.076;3.784;2022-11-20T01:11:16;5.20;99.90
45409;DHT22;31162;51.076;3.784;2022-11-20T01:13:42;5.00;99.90
45409;DHT22;31162;51.076;3.784;2022-11-20T01:16:13;4.80;99.90
45409;DHT22;31162;51.076;3.784;2022-11-20T01:18:41;4.90;99.90
45409;DHT22;31162;51.076;3.784;2022-11-20T01:21:12;5.10;99.90
45409;DHT22;31162;51.076;3.784;2022-11-20T01:23:40;5.20;99.90
45409;DHT22;31162;51.076;3.784;2022-11-20T01:26:09;5.30;99.90
45409;DHT22;31162;51.076;3.784;2022-11-20T01:28:35;5.30;99.90
45409;DHT22;31162;51.076;3.784;2022-11-20T01:31:02;5.30;99.90
45409;DHT22;31162;51.076;3.784;2022-11-20T01:33:35;5.60;99.90
45409;DHT22;31162;51.076;3.784;2022-11-20T01:36:05;5.50;99.90
45409;DHT22;31162;51.076;3.784;2022-11-20T01:38:31;5.30;99.90
45409;DHT22;31162;51.076;3.784;2022-11-20T01:40:57;5.10;99.90
45409;DHT22;31162;51.076;3.784;2022-11-20T01:43:23;5.20;99.90
45409;DHT22;31162;51.076;3.784;2022-11-20T01:51:35;5.00;99.90
45409;DHT22;31162;51.076;3.784;2022-11-20T01:54:06;5.00;99.90
45409;DHT22;31162;51.076;3.784;2022-11-20T01:56:38;5.20;99.90
45409;DHT22;31162;51.076;3.784;2022-11-20T01:59:05;5.30;99.90
45409;DHT22;31162;51.076;3.784;2022-11-20T02:01:33;5.30;99.90
45409;DHT22;31162;51.076;3.784;2022-11-20T02:04:00;5.30;99.90
45409;DHT22;31162;51.076;3.784;2022-11-20T02:06:30;5.50;99.90
45409;DHT22;31162;51.076;3.784;2022-11-20T02:08:58;5.10;99.90
45409;DHT22;31162;51.076;3.784;2022-11-20T02:11:23;5.20;99.90
45409;DHT22;31162;51.076;3.784;2022-11-20T02:13:49;5.20;99.90
45409;DHT22;31162;51.076;3.784;2022-11-20T02:16:29;5.30;99.90
45409;DHT22;31162;51.076;3.784;2022-11-20T02:18:57;5.30;99.90
45409;DHT22;31162;51.076;3.784;2022-11-20T02:21:28;5.20;99.90
45409;DHT22;31162;51.076;3.784;2022-11-20T02:26:27;4.90;99.90
45409;DHT22;31162;51.076;3.784;2022-11-20T02:28:54;5.00;99.90
45409;DHT22;31162;51.076;3.784;2022-11-20T02:31:20;4.90;99.90
45409;DHT22;31162;51.076;3.784;2022-11-20T02:33:45;4.90;99.90
45409;DHT22;31162;51.076;3.784;2022-11-20T02:36:14;5.00;99.90
45409;DHT22;31162;51.076;3.784;2022-11-20T02:38:42;5.00;99.90
45409;DHT22;31162;51.076;3.784;2022-11-20T02:41:08;5.10;99.90
45409;DHT22;31162;51.076;3.784;2022-11-20T02:43:34;5.00;99.90
45409;DHT22;31162;51.076;3.784;2022-11-20T02:45:59;5.00;99.90
45409;DHT22;31162;51.076;3.784;2022-11-20T02:48:25;5.00;99.90
45409;DHT22;31162;51.076;3.784;2022-11-20T02:50:51;5.10;99.90
45409;DHT22;31162;51.076;3.784;2022-11-20T02:53:16;5.10;99.90
45409;DHT22;31162;51.076;3.784;2022-11-20T02:55:42;5.20;99.90
45409;DHT22;31162;51.076;3.784;2022-11-20T02:58:07;5.20;99.90
45409;DHT22;31162;51.076;3.784;2022-11-20T03:00:33;5.20;99.90
45409;DHT22;31162;51.076;3.784;2022-11-20T03:02:59;5.20;99.90
45409;DHT22;31162;51.076;3.784;2022-11-20T03:05:24;5.30;99.90
45409;DHT22;31162;51.076;3.784;2022-11-20T03:07:51;5.30;99.90
45409;DHT22;31162;51.076;3.784;2022-11-20T03:10:17;5.30;99.90
45409;DHT22;31162;51.076;3.784;2022-11-20T03:12:42;5.40;99.90
45409;DHT22;31162;51.076;3.784;2022-11-20T03:15:08;5.50;99.90
45409;DHT22;31162;51.076;3.784;2022-11-20T03:17:34;5.50;99.90
45409;DHT22;31162;51.076;3.784;2022-11-20T03:20:00;5.50;99.90
45409;DHT22;31162;51.076;3.784;2022-11-20T03:22:28;5.50;99.90
45409;DHT22;31162;51.076;3.784;2022-11-20T03:24:53;5.70;99.90
45409;DHT22;31162;51.076;3.784;2022-11-20T03:27:19;5.80;99.90
45409;DHT22;31162;51.076;3.784;2022-11-20T03:29:45;5.70;99.90
45409;DHT22;31162;51.076;3.784;2022-11-20T03:32:11;5.70;99.90
45409;DHT22;31162;51.076;3.784;2022-11-20T03:34:36;5.60;99.90
45409;DHT22;31162;51.076;3.784;2022-11-20T03:37:02;5.60;99.90
45409;DHT22;31162;51.076;3.784;2022-11-20T03:39:28;5.70;99.90
45409;DHT22;31162;51.076;3.784;2022-11-20T03:41:54;5.80;99.90
45409;DHT22;31162;51.076;3.784;2022-11-20T03:44:21;5.70;99.90
45409;DHT22;31162;51.076;3.784;2022-11-20T03:46:47;5.60;99.90
45409;DHT22;31162;51.076;3.784;2022-11-20T03:49:12;5.70;99.90
45409;DHT22;31162;51.076;3.784;2022-11-20T03:51:38;5.70;99.90
45409;DHT22;31162;51.076;3.784;2022-11-20T03:54:07;5.80;99.90
45409;DHT22;31162;51.076;3.784;2022-11-20T03:56:36;5.80;99.90
45409;DHT22;31162;51.076;3.784;2022-11-20T03:59:03;5.90;99.90
45409;DHT22;31162;51.076;3.784;2022-11-20T04:01:36;5.80;99.90
45409;DHT22;31162;51.076;3.784;2022-11-20T04:04:03;5.70;99.90
45409;DHT22;31162;51.076;3.784;2022-11-20T04:06:38;5.80;99.90
45409;DHT22;31162;51.076;3.784;2022-11-20T04:09:05;5.70;99.90
45409;DHT22;31162;51.076;3.784;2022-11-20T04:11:32;5.80;99.90
45409;DHT22;31162;51.076;3.784;2022-11-20T04:14:04;5.60;99.90
45409;DHT22;31162;51.076;3.784;2022-11-20T04:16:30;5.60;99.90
45409;DHT22;31162;51.076;3.784;2022-11-20T04:18:59;5.70;99.90
45409;DHT22;31162;51.076;3.784;2022-11-20T04:21:26;5.70;99.90
45409;DHT22;31162;51.076;3.784;2022-11-20T04:23:52;5.70;99.90
45409;DHT22;31162;51.076;3.784;2022-11-20T04:26:20;5.80;99.90
45409;DHT22;31162;51.076;3.784;2022-11-20T04:28:46;5.80;99.90
45409;DHT22;31162;51.076;3.784;2022-11-20T04:31:14;5.70;99.90
45409;DHT22;31162;51.076;3.784;2022-11-20T04:33:41;5.90;99.90
45409;DHT22;31162;51.076;3.784;2022-11-20T04:36:10;5.90;99.90
45409;DHT22;31162;51.076;3.784;2022-11-20T04:38:36;5.90;99.90
45409;DHT22;31162;51.076;3.784;2022-11-20T04:41:05;5.80;99.90
45409;DHT22;31162;51.076;3.784;2022-11-20T04:43:31;6.00;99.90
45409;DHT22;31162;51.076;3.784;2022-11-20T04:45:58;6.00;99.90
45409;DHT22;31162;51.076;3.784;2022-11-20T04:48:25;6.10;99.90
45409;DHT22;31162;51.076;3.784;2022-11-20T04:50:52;5.90;99.90
45409;DHT22;31162;51.076;3.784;2022-11-20T04:53:18;5.80;99.90
45409;DHT22;31162;51.076;3.784;2022-11-20T04:55:44;5.70;99.90
45409;DHT22;31162;51.076;3.784;2022-11-20T04:58:10;5.60;99.90
45409;DHT22;31162;51.076;3.784;2022-11-20T05:00:35;5.40;99.90
45409;DHT22;31162;51.076;3.784;2022-11-20T05:03:01;5.40;99.90
45409;DHT22;31162;51.076;3.784;2022-11-20T05:05:27;5.30;99.90
45409;DHT22;31162;51.076;3.784;2022-11-20T05:07:52;5.40;99.90
45409;DHT22;31162;51.076;3.784;2022-11-20T05:10:18;5.60;99.90
45409;DHT22;31162;51.076;3.784;2022-11-20T05:12:44;5.60;99.90
45409;DHT22;31162;51.076;3.784;2022-11-20T05:15:09;5.30;99.90
45409;DHT22;31162;51.076;3.784;2022-11-20T05:17:35;5.30;99.90
45409;DHT22;31162;51.076;3.784;2022-11-20T05:20:01;5.30;99.90
45409;DHT22;31162;51.076;3.784;2022-11-20T05:22:26;5.50;99.90
45409;DHT22;31162;51.076;3.784;2022-11-20T05:24:52;5.50;99.90
45409;DHT22;31162;51.076;3.784;2022-11-20T05:27:17;5.70;99.90
45409;DHT22;31162;51.076;3.784;2022-11-20T05:29:43;5.50;99.90
45409;DHT22;31162;51.076;3.784;2022-11-20T05:32:09;5.50;99.90
45409;DHT22;31162;51.076;3.784;2022-11-20T05:34:35;5.70;99.90
45409;DHT22;31162;51.076;3.784;2022-11-20T05:37:02;5.50;99.90
45409;DHT22;31162;51.076;3.784;2022-11-20T05:39:28;5.50;99.90
45409;DHT22;31162;51.076;3.784;2022-11-20T05:41:54;5.50;99.90
45409;DHT22;31162;51.076;3.784;2022-11-20T05:44:39;5.40;99.90
45409;DHT22;31162;51.076;3.784;2022-11-20T05:47:04;5.40;99.90
45409;DHT22;31162;51.076;3.784;2022-11-20T05:49:30;5.50;99.90
45409;DHT22;31162;51.076;3.784;2022-11-20T05:51:56;5.60;99.90
45409;DHT22;31162;51.076;3.784;2022-11-20T05:54:22;5.70;99.90
45409;DHT22;31162;51.076;3.784;2022-11-20T05:56:47;5.70;99.90
45409;DHT22;31162;51.076;3.784;2022-11-20T05:59:13;5.80;99.90
45409;DHT22;31162;51.076;3.784;2022-11-20T06:01:39;5.80;99.90
45409;DHT22;31162;51.076;3.784;2022-11-20T06:04:04;5.90;99.90
45409;DHT22;31162;51.076;3.784;2022-11-20T06:06:30;5.90;99.90
45409;DHT22;31162;51.076;3.784;2022-11-20T06:08:56;6.00;99.90
45409;DHT22;31162;51.076;3.784;2022-11-20T06:11:21;6.00;99.90
45409;DHT22;31162;51.076;3.784;2022-11-20T06:13:47;6.10;99.90
45409;DHT22;31162;51.076;3.784;2022-11-20T06:16:15;6.20;99.90
45409;DHT22;31162;51.076;3.784;2022-11-20T06:18:41;6.30;99.90
45409;DHT22;31162;51.076;3.784;2022-11-20T06:21:13;6.20;99.90
45409;DHT22;31162;51.076;3.784;2022-11-20T06:23:39;6.30;99.90
45409;DHT22;31162;51.076;3.784;2022-11-20T06:26:10;6.30;99.90
45409;DHT22;31162;51.076;3.784;2022-11-20T06:28:37;6.30;99.90
45409;DHT22;31162;51.076;3.784;2022-11-20T06:31:03;6.30;99.90
45409;DHT22;31162;51.076;3.784;2022-11-20T06:33:29;6.40;99.90
45409;DHT22;31162;51.076;3.784;2022-11-20T06:35:59;6.40;99.90
45409;DHT22;31162;51.076;3.784;2022-11-20T06:38:26;6.30;99.90
45409;DHT22;31162;51.076;3.784;2022-11-20T06:40:52;6.40;99.90
45409;DHT22;31162;51.076;3.784;2022-11-20T06:43:18;6.50;99.90
45409;DHT22;31162;51.076;3.784;2022-11-20T06:45:43;6.40;99.90
45409;DHT22;31162;51.076;3.784;2022-11-20T06:48:09;6.20;99.90
45409;DHT22;31162;51.076;3.784;2022-11-20T06:50:37;6.30;99.90
45409;DHT22;31162;51.076;3.784;2022-11-20T06:53:04;6.30;99.90
45409;DHT22;31162;51.076;3.784;2022-11-20T06:55:31;6.30;99.90
45409;DHT22;31162;51.076;3.784;2022-11-20T06:57:57;6.30;99.90
45409;DHT22;31162;51.076;3.784;2022-11-20T07:00:23;6.40;99.90
45409;DHT22;31162;51.076;3.784;2022-11-20T07:02:49;6.50;99.90
45409;DHT22;31162;51.076;3.784;2022-11-20T07:05:15;6.60;99.90
45409;DHT22;31162;51.076;3.784;2022-11-20T07:07:41;6.60;99.90
45409;DHT22;31162;51.076;3.784;2022-11-20T07:10:07;6.70;99.90
45409;DHT22;31162;51.076;3.784;2022-11-20T07:12:33;6.60;99.90
45409;DHT22;31162;51.076;3.784;2022-11-20T07:14:59;6.50;99.90
45409;DHT22;31162;51.076;3.784;2022-11-20T07:17:25;6.40;99.90
45409;DHT22;31162;51.076;3.784;2022-11-20T07:19:50;6.20;99.90
45409;DHT22;31162;51.076;3.784;2022-11-20T07:22:16;6.20;99.90
45409;DHT22;31162;51.076;3.784;2022-11-20T07:24:41;6.50;99.90
45409;DHT22;31162;51.076;3.784;2022-11-20T07:27:07;6.50;99.90
45409;DHT22;31162;51.076;3.784;2022-11-20T07:29:33;6.20;99.90
45409;DHT22;31162;51.076;3.784;2022-11-20T07:31:58;6.30;99.90
45409;DHT22;31162;51.076;3.784;2022-11-20T07:34:24;6.40;99.90
45409;DHT22;31162;51.076;3.784;2022-11-20T07:36:50;6.30;99.90
45409;DHT22;31162;51.076;3.784;2022-11-20T07:39:15;6.40;99.90
45409;DHT22;31162;51.076;3.784;2022-11-20T07:41:41;6.60;99.90
45409;DHT22;31162;51.076;3.784;2022-11-20T07:44:07;6.60;99.90
45409;DHT22;31162;51.076;3.784;2022-11-20T07:46:32;6.70;99.90
45409;DHT22;31162;51.076;3.784;2022-11-20T07:48:58;6.90;99.90
45409;DHT22;31162;51.076;3.784;2022-11-20T07:51:24;6.60;99.90
45409;DHT22;31162;51.076;3.784;2022-11-20T07:53:52;6.80;99.90
45409;DHT22;31162;51.076;3.784;2022-11-20T07:56:18;6.90;99.90
45409;DHT22;31162;51.076;3.784;2022-11-20T07:58:44;6.90;99.90
45409;DHT22;31162;51.076;3.784;2022-11-20T08:01:09;6.90;99.90
45409;DHT22;31162;51.076;3.784;2022-11-20T08:03:36;6.90;99.90
45409;DHT22;31162;51.076;3.784;2022-11-20T08:06:04;6.80;99.90
45409;DHT22;31162;51.076;3.784;2022-11-20T08:08:30;6.70;99.90
45409;DHT22;31162;51.076;3.784;2022-11-20T08:10:59;6.60;99.90
45409;DHT22;31162;51.076;3.784;2022-11-20T08:13:43;6.80;99.90
45409;DHT22;31162;51.076;3.784;2022-11-20T08:16:28;6.90;99.90
45409;DHT22;31162;51.076;3.784;2022-11-20T08:18:54;7.00;99.90
45409;DHT22;31162;51.076;3.784;2022-11-20T08:21:20;7.00;99.90
45409;DHT22;31162;51.076;3.784;2022-11-20T08:23:45;7.10;99.90
45409;DHT22;31162;51.076;3.784;2022-11-20T08:26:11;7.10;99.90
45409;DHT22;31162;51.076;3.784;2022-11-20T08:28:36;7.40;99.90
45409;DHT22;31162;51.076;3.784;2022-11-20T08:31:03;7.30;99.90
45409;DHT22;31162;51.076;3.784;2022-11-20T08:33:29;7.30;99.90
45409;DHT22;31162;51.076;3.784;2022-11-20T08:36:00;7.30;99.90
45409;DHT22;31162;51.076;3.784;2022-11-20T08:38:26;7.00;99.90
45409;DHT22;31162;51.076;3.784;2022-11-20T08:40:52;7.00;99.90
45409;DHT22;31162;51.076;3.784;2022-11-20T08:43:40;7.00;99.90
45409;DHT22;31162;51.076;3.784;2022-11-20T08:46:06;7.10;99.90
45409;DHT22;31162;51.076;3.784;2022-11-20T08:48:31;7.30;99.90
45409;DHT22;31162;51.076;3.784;2022-11-20T08:51:00;7.40;99.90
45409;DHT22;31162;51.076;3.784;2022-11-20T08:53:26;7.30;99.90
45409;DHT22;31162;51.076;3.784;2022-11-20T08:55:52;7.10;99.90
45409;DHT22;31162;51.076;3.784;2022-11-20T08:58:18;7.10;99.90
45409;DHT22;31162;51.076;3.784;2022-11-20T09:00:43;7.00;99.90
45409;DHT22;31162;51.076;3.784;2022-11-20T09:03:09;7.10;99.90
45409;DHT22;31162;51.076;3.784;2022-11-20T09:05:34;7.20;99.90
45409;DHT22;31162;51.076;3.784;2022-11-20T09:08:00;7.20;99.90
45409;DHT22;31162;51.076;3.784;2022-11-20T09:10:26;7.40;99.90
45409;DHT22;31162;51.076;3.784;2022-11-20T09:12:53;7.40;99.90
45409;DHT22;31162;51.076;3.784;2022-11-20T09:15:19;7.40;99.90
45409;DHT22;31162;51.076;3.784;2022-11-20T09:18:00;7.40;99.90
45409;DHT22;31162;51.076;3.784;2022-11-20T09:20:27;7.50;99.90
45409;DHT22;31162;51.076;3.784;2022-11-20T09:22:54;7.50;99.90
45409;DHT22;31162;51.076;3.784;2022-11-20T09:25:20;7.60;99.90
45409;DHT22;31162;51.076;3.784;2022-11-20T09:27:46;7.70;99.90
45409;DHT22;31162;51.076;3.784;2022-11-20T09:30:15;7.60;99.90
45409;DHT22;31162;51.076;3.784;2022-11-20T09:32:42;7.70;99.90
45409;DHT22;31162;51.076;3.784;2022-11-20T09:35:08;7.70;99.90
45409;DHT22;31162;51.076;3.784;2022-11-20T09:37:35;7.90;99.90
45409;DHT22;31162;51.076;3.784;2022-11-20T09:40:00;8.10;99.90
45409;DHT22;31162;51.076;3.784;2022-11-20T09:42:59;8.20;99.90
45409;DHT22;31162;51.076;3.784;2022-11-20T09:45:35;8.30;99.90
45409;DHT22;31162;51.076;3.784;2022-11-20T09:48:20;8.30;99.90
45409;DHT22;31162;51.076;3.784;2022-11-20T09:51:19;8.50;99.90
45409;DHT22;31162;51.076;3.784;2022-11-20T09:56:19;8.80;99.90
45409;DHT22;31162;51.076;3.784;2022-11-20T09:58:48;8.70;99.90
45409;DHT22;31162;51.076;3.784;2022-11-20T10:06:39;9.20;99.90
45409;DHT22;31162;51.076;3.784;2022-11-20T10:17:19;9.70;99.90
45409;DHT22;31162;51.076;3.784;2022-11-20T10:25:38;9.90;99.90
45409;DHT22;31162;51.076;3.784;2022-11-20T10:31:01;10.10;99.90
45409;DHT22;31162;51.076;3.784;2022-11-20T10:33:33;10.20;99.90
45409;DHT22;31162;51.076;3.784;2022-11-20T10:36:17;10.20;99.90
45409;DHT22;31162;51.076;3.784;2022-11-20T10:38:51;10.10;99.90
45409;DHT22;31162;51.076;3.784;2022-11-20T10:41:27;10.30;99.90
45409;DHT22;31162;51.076;3.784;2022-11-20T10:46:37;10.30;99.90
45409;DHT22;31162;51.076;3.784;2022-11-20T10:49:16;10.50;99.90
45409;DHT22;31162;51.076;3.784;2022-11-20T10:52:02;10.40;99.90
45409;DHT22;31162;51.076;3.784;2022-11-20T10:55:23;10.50;99.90
45409;DHT22;31162;51.076;3.784;2022-11-20T11:01:19;10.70;99.90
45409;DHT22;31162;51.076;3.784;2022-11-20T11:03:49;11.00;99.90
45409;DHT22;31162;51.076;3.784;2022-11-20T11:06:33;11.00;99.90
45409;DHT22;31162;51.076;3.784;2022-11-20T11:09:06;10.90;99.90
45409;DHT22;31162;51.076;3.784;2022-11-20T11:11:38;10.80;99.90
45409;DHT22;31162;51.076;3.784;2022-11-20T11:14:11;10.50;99.90
45409;DHT22;31162;51.076;3.784;2022-11-20T11:16:57;10.60;99.90
45409;DHT22;31162;51.076;3.784;2022-11-20T11:19:23;10.60;99.90
45409;DHT22;31162;51.076;3.784;2022-11-20T11:21:52;10.50;99.90
45409;DHT22;31162;51.076;3.784;2022-11-20T11:24:27;10.60;99.90
45409;DHT22;31162;51.076;3.784;2022-11-20T11:26:57;10.50;99.90
45409;DHT22;31162;51.076;3.784;2022-11-20T11:29:24;10.60;99.90
45409;DHT22;31162;51.076;3.784;2022-11-20T11:32:06;10.50;99.90
45409;DHT22;31162;51.076;3.784;2022-11-20T11:34:32;10.20;99.90
45409;DHT22;31162;51.076;3.784;2022-11-20T11:36:58;10.30;99.90
45409;DHT22;31162;51.076;3.784;2022-11-20T11:39:26;10.40;99.90
45409;DHT22;31162;51.076;3.784;2022-11-20T11:41:52;10.40;99.90
45409;DHT22;31162;51.076;3.784;2022-11-20T11:47:50;10.20;99.90
45409;DHT22;31162;51.076;3.784;2022-11-20T11:50:27;10.10;99.90
45409;DHT22;31162;51.076;3.784;2022-11-20T11:53:14;10.10;99.90
45409;DHT22;31162;51.076;3.784;2022-11-20T11:56:05;10.00;99.90
45409;DHT22;31162;51.076;3.784;2022-11-20T11:58:47;9.70;99.90
45409;DHT22;31162;51.076;3.784;2022-11-20T12:06:44;9.50;99.90
45409;DHT22;31162;51.076;3.784;2022-11-20T12:09:12;9.20;99.90
45409;DHT22;31162;51.076;3.784;2022-11-20T12:11:54;9.00;99.90
45409;DHT22;31162;51.076;3.784;2022-11-20T12:14:35;8.80;99.90
45409;DHT22;31162;51.076;3.784;2022-11-20T12:17:02;8.90;99.90
45409;DHT22;31162;51.076;3.784;2022-11-20T12:19:31;9.00;99.90
45409;DHT22;31162;51.076;3.784;2022-11-20T12:22:28;9.10;99.90
45409;DHT22;31162;51.076;3.784;2022-11-20T12:25:22;9.00;99.90
45409;DHT22;31162;51.076;3.784;2022-11-20T12:30:21;9.10;99.90
45409;DHT22;31162;51.076;3.784;2022-11-20T12:33:00;9.10;99.90
45409;DHT22;31162;51.076;3.784;2022-11-20T12:41:27;9.00;99.90
45409;DHT22;31162;51.076;3.784;2022-11-20T12:44:32;9.00;99.90
45409;DHT22;31162;51.076;3.784;2022-11-20T12:47:33;9.20;99.90
45409;DHT22;31162;51.076;3.784;2022-11-20T13:04:54;9.00;99.90
45409;DHT22;31162;51.076;3.784;2022-11-20T13:07:21;8.80;99.90
45409;DHT22;31162;51.076;3.784;2022-11-20T13:09:49;8.80;99.90
45409;DHT22;31162;51.076;3.784;2022-11-20T13:15:17;8.80;99.90
45409;DHT22;31162;51.076;3.784;2022-11-20T13:17:52;8.90;99.90
45409;DHT22;31162;51.076;3.784;2022-11-20T13:20:19;9.00;99.90
45409;DHT22;31162;51.076;3.784;2022-11-20T13:22:48;9.10;99.90
45409;DHT22;31162;51.076;3.784;2022-11-20T13:27:58;9.10;99.90
45409;DHT22;31162;51.076;3.784;2022-11-20T13:30:25;9.10;99.90
45409;DHT22;31162;51.076;3.784;2022-11-20T13:36:07;9.00;99.90
45409;DHT22;31162;51.076;3.784;2022-11-20T13:38:44;9.00;99.90
45409;DHT22;31162;51.076;3.784;2022-11-20T13:41:22;9.00;99.90
45409;DHT22;31162;51.076;3.784;2022-11-20T13:44:09;9.00;99.90
45409;DHT22;31162;51.076;3.784;2022-11-20T13:46:45;9.00;99.90
45409;DHT22;31162;51.076;3.784;2022-11-20T13:49:31;9.00;99.90
45409;DHT22;31162;51.076;3.784;2022-11-20T14:01:08;9.10;99.90
45409;DHT22;31162;51.076;3.784;2022-11-20T14:03:35;9.10;99.90
45409;DHT22;31162;51.076;3.784;2022-11-20T14:06:10;9.10;99.90
45409;DHT22;31162;51.076;3.784;2022-11-20T14:08:46;9.10;99.90
45409;DHT22;31162;51.076;3.784;2022-11-20T14:11:21;9.10;99.90
45409;DHT22;31162;51.076;3.784;2022-11-20T14:14:16;9.20;99.90
45409;DHT22;31162;51.076;3.784;2022-11-20T14:16:42;9.30;99.90
45409;DHT22;31162;51.076;3.784;2022-11-20T14:19:28;9.40;99.90
45409;DHT22;31162;51.076;3.784;2022-11-20T14:24:43;9.70;99.90
45409;DHT22;31162;51.076;3.784;2022-11-20T14:27:19;9.70;99.90
45409;DHT22;31162;51.076;3.784;2022-11-20T14:29:48;9.80;99.90
45409;DHT22;31162;51.076;3.784;2022-11-20T14:32:24;9.80;99.90
45409;DHT22;31162;51.076;3.784;2022-11-20T14:34:51;9.70;99.90
45409;DHT22;31162;51.076;3.784;2022-11-20T14:37:25;9.70;99.90
45409;DHT22;31162;51.076;3.784;2022-11-20T14:39:56;9.90;99.90
45409;DHT22;31162;51.076;3.784;2022-11-20T14:42:25;10.10;99.90
45409;DHT22;31162;51.076;3.784;2022-11-20T14:44:58;10.10;99.90
45409;DHT22;31162;51.076;3.784;2022-11-20T14:47:26;10.10;99.90
45409;DHT22;31162;51.076;3.784;2022-11-20T14:49:54;10.00;99.90
45409;DHT22;31162;51.076;3.784;2022-11-20T14:52:25;10.00;99.90
45409;DHT22;31162;51.076;3.784;2022-11-20T14:54:53;10.00;99.90
45409;DHT22;31162;51.076;3.784;2022-11-20T14:57:31;10.00;99.90
45409;DHT22;31162;51.076;3.784;2022-11-20T15:02:33;9.90;99.90
45409;DHT22;31162;51.076;3.784;2022-11-20T15:05:00;9.90;99.90
45409;DHT22;31162;51.076;3.784;2022-11-20T15:07:34;9.80;99.90
45409;DHT22;31162;51.076;3.784;2022-11-20T15:12:36;9.80;99.90
45409;DHT22;31162;51.076;3.784;2022-11-20T15:15:03;9.70;99.90
45409;DHT22;31162;51.076;3.784;2022-11-20T15:17:31;9.70;99.90
45409;DHT22;31162;51.076;3.784;2022-11-20T15:19:58;9.70;99.90
45409;DHT22;31162;51.076;3.784;2022-11-20T15:22:25;9.60;99.90
45409;DHT22;31162;51.076;3.784;2022-11-20T15:24:50;9.60;99.90
45409;DHT22;31162;51.076;3.784;2022-11-20T15:27:16;9.70;99.90
45409;DHT22;31162;51.076;3.784;2022-11-20T15:29:42;9.80;99.90
45409;DHT22;31162;51.076;3.784;2022-11-20T15:32:08;9.70;99.90
45409;DHT22;31162;51.076;3.784;2022-11-20T15:34:34;9.70;99.90
45409;DHT22;31162;51.076;3.784;2022-11-20T15:37:00;9.70;99.90
45409;DHT22;31162;51.076;3.784;2022-11-20T15:39:25;9.70;99.90
45409;DHT22;31162;51.076;3.784;2022-11-20T15:41:51;9.60;99.90
45409;DHT22;31162;51.076;3.784;2022-11-20T15:44:17;9.40;99.90
45409;DHT22;31162;51.076;3.784;2022-11-20T15:46:42;9.50;99.90
45409;DHT22;31162;51.076;3.784;2022-11-20T15:49:14;9.30;99.90
45409;DHT22;31162;51.076;3.784;2022-11-20T15:51:43;9.20;99.90
45409;DHT22;31162;51.076;3.784;2022-11-20T15:54:12;9.20;99.90
45409;DHT22;31162;51.076;3.784;2022-11-20T15:56:38;9.20;99.90
45409;DHT22;31162;51.076;3.784;2022-11-20T15:59:04;9.10;99.90
45409;DHT22;31162;51.076;3.784;2022-11-20T16:01:29;9.10;99.90
45409;DHT22;31162;51.076;3.784;2022-11-20T16:03:55;8.90;99.90
45409;DHT22;31162;51.076;3.784;2022-11-20T16:06:21;8.90;99.90
45409;DHT22;31162;51.076;3.784;2022-11-20T16:08:46;8.90;99.90
45409;DHT22;31162;51.076;3.784;2022-11-20T16:11:14;8.90;99.90
45409;DHT22;31162;51.076;3.784;2022-11-20T16:13:40;8.90;99.90
45409;DHT22;31162;51.076;3.784;2022-11-20T16:16:36;8.90;99.90
45409;DHT22;31162;51.076;3.784;2022-11-20T16:19:03;9.10;99.90
45409;DHT22;31162;51.076;3.784;2022-11-20T16:21:29;9.20;99.90
45409;DHT22;31162;51.076;3.784;2022-11-20T16:24:03;9.10;99.90
45409;DHT22;31162;51.076;3.784;2022-11-20T16:26:29;9.20;99.90
45409;DHT22;31162;51.076;3.784;2022-11-20T16:28:55;9.20;99.90
45409;DHT22;31162;51.076;3.784;2022-11-20T16:31:21;9.20;99.90
45409;DHT22;31162;51.076;3.784;2022-11-20T16:33:55;9.10;99.90
45409;DHT22;31162;51.076;3.784;2022-11-20T16:36:23;9.10;99.90
45409;DHT22;31162;51.076;3.784;2022-11-20T16:38:53;9.10;99.90
45409;DHT22;31162;51.076;3.784;2022-11-20T16:41:19;9.10;99.90
45409;DHT22;31162;51.076;3.784;2022-11-20T16:43:55;9.20;99.90
45409;DHT22;31162;51.076;3.784;2022-11-20T16:46:29;9.40;99.90
45409;DHT22;31162;51.076;3.784;2022-11-20T16:49:06;9.30;99.90
45409;DHT22;31162;51.076;3.784;2022-11-20T16:51:36;9.10;99.90
45409;DHT22;31162;51.076;3.784;2022-11-20T16:54:03;9.10;99.90
45409;DHT22;31162;51.076;3.784;2022-11-20T16:56:29;9.10;99.90
45409;DHT22;31162;51.076;3.784;2022-11-20T16:58:56;9.10;99.90
45409;DHT22;31162;51.076;3.784;2022-11-20T17:01:23;9.10;99.90
45409;DHT22;31162;51.076;3.784;2022-11-20T17:03:57;9.00;99.90
45409;DHT22;31162;51.076;3.784;2022-11-20T17:06:25;9.00;99.90
45409;DHT22;31162;51.076;3.784;2022-11-20T17:08:53;9.00;99.90
45409;DHT22;31162;51.076;3.784;2022-11-20T17:11:19;9.00;99.90
45409;DHT22;31162;51.076;3.784;2022-11-20T17:13:45;9.00;99.90
45409;DHT22;31162;51.076;3.784;2022-11-20T17:16:14;9.00;99.90
45409;DHT22;31162;51.076;3.784;2022-11-20T17:18:40;9.00;99.90
45409;DHT22;31162;51.076;3.784;2022-11-20T17:21:06;9.00;99.90
45409;DHT22;31162;51.076;3.784;2022-11-20T17:23:37;9.00;99.90
45409;DHT22;31162;51.076;3.784;2022-11-20T17:26:05;9.00;99.90
45409;DHT22;31162;51.076;3.784;2022-11-20T17:28:31;9.20;99.90
45409;DHT22;31162;51.076;3.784;2022-11-20T17:31:07;9.20;99.90
45409;DHT22;31162;51.076;3.784;2022-11-20T17:33:35;9.20;99.90